createdAt,value
2022-08-23T00:00:13.471Z,20.10
2022-08-23T00:02:40.867Z,23.80
2022-08-23T00:05:10.121Z,20.73
2022-08-23T00:07:44.131Z,22.70
2022-08-23T00:10:13.088Z,25.47
2022-08-23T00:12:40.445Z,28.47
2022-08-23T00:15:10.087Z,26.30
2022-08-23T00:17:37.387Z,28.40
2022-08-23T00:20:16.430Z,29.87
2022-08-23T00:23:01.822Z,22.80
2022-08-23T00:25:46.980Z,24.73
2022-08-23T00:28:17.238Z,23.80
2022-08-23T00:30:44.144Z,27.37
2022-08-23T00:33:11.099Z,21.70
2022-08-23T00:35:38.803Z,25.43
2022-08-23T00:38:31.785Z,19.60
2022-08-23T00:40:56.249Z,22.70
2022-08-23T00:43:53.756Z,22.73
2022-08-23T00:47:02.729Z,24.37
2022-08-23T00:49:32.069Z,22.43
2022-08-23T00:52:07.731Z,28.67
2022-08-23T00:54:36.347Z,22.87
2022-08-23T00:57:06.657Z,25.37
2022-08-23T01:02:10.298Z,26.03
2022-08-23T01:08:10.899Z,23.20
2022-08-23T01:10:48.097Z,23.63
2022-08-23T01:13:30.285Z,27.00
2022-08-23T01:16:35.226Z,21.30
2022-08-23T01:19:40.437Z,24.93
2022-08-23T01:22:52.119Z,24.30
2022-08-23T01:25:41.193Z,21.63
2022-08-23T01:28:08.433Z,21.90
2022-08-23T01:30:42.246Z,30.10
2022-08-23T01:33:10.471Z,25.60
2022-08-23T01:35:55.901Z,26.13
2022-08-23T01:38:39.577Z,29.73
2022-08-23T01:44:27.435Z,22.93
2022-08-23T01:46:58.027Z,29.07
2022-08-23T01:49:25.063Z,22.20
2022-08-23T01:52:03.736Z,23.70
2022-08-23T01:54:30.581Z,26.00
2022-08-23T01:56:57.659Z,31.10
2022-08-23T01:59:27.056Z,28.13
2022-08-23T02:01:57.177Z,27.40
2022-08-23T02:04:24.087Z,30.53
2022-08-23T02:06:50.937Z,29.73
2022-08-23T02:09:18.231Z,20.23
2022-08-23T02:11:45.733Z,26.43
2022-08-23T02:14:18.694Z,24.90
2022-08-23T02:17:02.696Z,27.47
2022-08-23T02:19:32.816Z,25.97
2022-08-23T02:22:00.130Z,33.63
2022-08-23T02:24:27.039Z,20.63
2022-08-23T02:26:57.650Z,24.07
2022-08-23T02:29:29.538Z,29.27
2022-08-23T02:31:57.847Z,20.33
2022-08-23T02:34:25.468Z,22.43
2022-08-23T02:37:01.024Z,24.50
2022-08-23T02:39:35.285Z,27.73
2022-08-23T02:42:11.895Z,21.40
2022-08-23T02:44:40.079Z,22.83
2022-08-23T02:47:15.935Z,18.80
2022-08-23T02:49:42.823Z,20.43
2022-08-23T02:52:09.782Z,21.67
2022-08-23T02:54:42.301Z,29.37
2022-08-23T02:57:09.137Z,21.43
2022-08-23T02:59:36.477Z,25.63
2022-08-23T03:02:05.732Z,25.13
2022-08-23T03:04:32.592Z,24.17
2022-08-23T03:06:59.571Z,23.67
2022-08-23T03:09:26.593Z,22.27
2022-08-23T03:20:05.043Z,21.97
2022-08-23T03:22:31.981Z,23.00
2022-08-23T03:24:58.818Z,20.77
2022-08-23T03:27:25.705Z,21.97
2022-08-23T03:29:52.695Z,22.50
2022-08-23T03:32:19.570Z,21.07
2022-08-23T03:34:46.899Z,28.67
2022-08-23T03:37:14.472Z,24.73
2022-08-23T03:42:59.024Z,20.57
2022-08-23T03:45:26.030Z,17.37
2022-08-23T03:47:55.058Z,20.93
2022-08-23T03:52:57.329Z,21.77
2022-08-23T03:55:46.343Z,22.87
2022-08-23T03:58:13.548Z,24.57
2022-08-23T04:00:40.646Z,19.77
2022-08-23T04:03:07.593Z,22.13
2022-08-23T04:05:37.484Z,22.97
2022-08-23T04:08:11.652Z,31.13
2022-08-23T04:10:39.318Z,26.93
2022-08-23T04:19:13.255Z,22.17
2022-08-23T04:22:28.279Z,22.30
2022-08-23T04:25:34.957Z,23.63
2022-08-23T04:31:23.324Z,23.20
2022-08-23T04:34:02.943Z,30.57
2022-08-23T04:36:41.801Z,25.27
2022-08-23T04:39:22.475Z,23.37
2022-08-23T04:46:02.016Z,27.73
2022-08-23T04:48:54.287Z,22.63
2022-08-23T04:51:22.535Z,20.83
2022-08-23T04:54:27.045Z,21.10
2022-08-23T04:57:18.359Z,22.23
2022-08-23T05:11:37.261Z,19.27
2022-08-23T05:14:04.486Z,19.70
2022-08-23T05:16:34.206Z,23.70
2022-08-23T05:19:03.783Z,18.80
2022-08-23T05:21:36.659Z,18.00
2022-08-23T05:27:47.285Z,23.43
2022-08-23T05:30:15.525Z,21.57
2022-08-23T05:45:39.989Z,21.57
2022-08-23T05:50:55.283Z,20.20
2022-08-23T06:08:12.950Z,19.53
2022-08-23T06:29:43.833Z,26.33
2022-08-23T06:32:56.095Z,21.77
2022-08-23T06:36:40.676Z,17.93
2022-08-23T06:39:27.596Z,23.33
2022-08-23T06:42:45.068Z,16.47
2022-08-23T06:45:42.371Z,23.23
2022-08-23T06:48:29.740Z,25.53
2022-08-23T06:51:18.155Z,29.33
2022-08-23T06:53:55.089Z,21.83
2022-08-23T06:56:23.448Z,25.03
2022-08-23T07:02:36.114Z,28.23
2022-08-23T07:05:03.038Z,21.87
2022-08-23T07:07:39.544Z,18.40
2022-08-23T07:10:11.239Z,17.90
2022-08-23T07:12:41.359Z,17.73
2022-08-23T07:15:11.367Z,16.20
2022-08-23T07:17:38.515Z,19.87
2022-08-23T07:20:07.273Z,19.92
2022-08-23T07:22:44.632Z,19.45
2022-08-23T07:25:27.108Z,21.23
2022-08-23T07:27:54.496Z,14.87
2022-08-23T07:30:38.620Z,15.30
2022-08-23T07:33:16.625Z,19.43
2022-08-23T07:36:13.131Z,19.27
2022-08-23T07:38:40.070Z,22.88
2022-08-23T07:41:40.884Z,20.40
2022-08-23T07:44:18.286Z,18.90
2022-08-23T07:50:07.978Z,22.25
2022-08-23T07:52:35.623Z,16.57
2022-08-23T07:55:07.006Z,20.70
2022-08-23T07:57:33.989Z,22.98
2022-08-23T08:00:01.087Z,19.70
2022-08-23T08:02:34.306Z,24.30
2022-08-23T08:05:07.485Z,20.30
2022-08-23T08:07:35.425Z,25.52
2022-08-23T08:10:12.429Z,24.27
2022-08-23T08:12:39.908Z,17.85
2022-08-23T08:15:16.712Z,20.98
2022-08-23T08:18:02.456Z,19.25
2022-08-23T08:23:34.057Z,16.58
2022-08-23T08:28:58.091Z,22.98
2022-08-23T08:31:26.079Z,21.05
2022-08-23T08:33:54.207Z,25.85
2022-08-23T08:36:41.729Z,18.60
2022-08-23T08:39:12.265Z,20.00
2022-08-23T08:42:18.373Z,19.38
2022-08-23T08:45:00.885Z,19.13
2022-08-23T08:47:51.199Z,18.50
2022-08-23T08:50:24.341Z,20.23
2022-08-23T08:53:02.922Z,24.13
2022-08-23T08:56:01.345Z,20.52
2022-08-23T08:58:45.724Z,20.50
2022-08-23T09:01:24.717Z,23.38
2022-08-23T09:03:52.758Z,15.35
2022-08-23T09:06:28.714Z,19.63
2022-08-23T09:09:31.017Z,19.85
2022-08-23T09:12:48.450Z,18.05
2022-08-23T09:15:34.970Z,22.48
2022-08-23T09:18:14.488Z,18.40
2022-08-23T09:20:43.176Z,36.95
2022-08-23T09:23:42.815Z,24.27
2022-08-23T09:26:25.055Z,21.60
2022-08-23T09:28:56.574Z,20.90
2022-08-23T09:31:38.442Z,17.98
2022-08-23T09:34:06.108Z,20.02
2022-08-23T09:36:38.069Z,18.05
2022-08-23T09:39:11.485Z,24.70
2022-08-23T09:41:41.636Z,18.80
2022-08-23T09:44:13.663Z,15.70
2022-08-23T09:46:43.521Z,18.17
2022-08-23T09:49:30.156Z,20.20
2022-08-23T09:52:01.553Z,23.33
2022-08-23T09:54:36.381Z,19.58
2022-08-23T09:57:06.702Z,22.80
2022-08-23T09:59:41.412Z,18.60
2022-08-23T10:02:17.175Z,21.73
2022-08-23T10:04:55.514Z,24.25
2022-08-23T10:07:43.966Z,19.75
2022-08-23T10:10:31.853Z,18.70
2022-08-23T10:12:59.584Z,22.45
2022-08-23T10:15:43.554Z,20.33
2022-08-23T10:18:34.448Z,22.15
2022-08-23T10:21:11.927Z,22.48
2022-08-23T10:24:24.230Z,20.67
2022-08-23T10:27:00.628Z,20.38
2022-08-23T10:29:40.933Z,21.42
2022-08-23T10:32:16.582Z,18.02
2022-08-23T10:34:58.369Z,13.57
2022-08-23T10:37:37.381Z,15.57
2022-08-23T10:40:36.115Z,32.65
2022-08-23T10:43:26.167Z,17.10
2022-08-23T10:45:57.109Z,19.83
2022-08-23T10:48:32.068Z,27.35
2022-08-23T10:51:12.632Z,20.20
2022-08-23T10:53:49.070Z,21.52
2022-08-23T10:56:21.906Z,22.20
2022-08-23T10:58:53.030Z,26.33
2022-08-23T11:01:26.851Z,18.98
2022-08-23T11:04:14.654Z,14.68
2022-08-23T11:06:47.359Z,19.25
2022-08-23T11:12:21.107Z,19.17
2022-08-23T11:15:07.352Z,21.88
2022-08-23T11:18:02.624Z,19.98
2022-08-23T11:20:51.339Z,19.25
2022-08-23T11:23:47.033Z,24.08
2022-08-23T11:26:26.584Z,23.83
2022-08-23T11:29:22.363Z,19.38
2022-08-23T11:32:06.714Z,26.10
2022-08-23T11:35:04.398Z,27.02
2022-08-23T11:37:56.327Z,22.45
2022-08-23T11:40:56.896Z,27.75
2022-08-23T11:43:35.016Z,22.38
2022-08-23T11:46:23.096Z,21.90
2022-08-23T11:48:59.372Z,23.88
2022-08-23T11:51:47.748Z,23.30
2022-08-23T11:54:32.392Z,23.88
2022-08-23T11:57:30.379Z,32.08
2022-08-23T12:00:15.114Z,25.95
2022-08-23T12:02:53.150Z,22.95
2022-08-23T12:05:32.595Z,21.65
2022-08-23T12:08:02.807Z,21.15
2022-08-23T12:10:41.351Z,23.08
2022-08-23T12:13:23.079Z,17.85
2022-08-23T12:16:16.375Z,29.92
2022-08-23T12:18:52.863Z,26.88
2022-08-23T12:21:26.519Z,22.13
2022-08-23T12:23:57.459Z,21.63
2022-08-23T12:26:52.588Z,27.55
2022-08-23T12:29:33.445Z,21.25
2022-08-23T12:32:21.641Z,22.98
2022-08-23T12:35:00.973Z,22.33
2022-08-23T12:38:07.536Z,23.73
2022-08-23T12:40:42.621Z,20.42
2022-08-23T12:43:16.713Z,24.58
2022-08-23T12:45:52.483Z,19.90
2022-08-23T12:48:23.928Z,27.23
2022-08-23T12:50:56.327Z,25.27
2022-08-23T12:53:36.259Z,24.65
2022-08-23T12:56:19.632Z,30.10
2022-08-23T12:58:53.526Z,21.70
2022-08-23T13:01:34.073Z,30.40
2022-08-23T13:04:12.181Z,19.25
2022-08-23T13:06:51.040Z,24.38
2022-08-23T13:09:24.846Z,26.58
2022-08-23T13:11:52.476Z,19.15
2022-08-23T13:14:43.468Z,27.33
2022-08-23T13:17:22.849Z,27.77
2022-08-23T13:20:12.574Z,26.45
2022-08-23T13:22:55.684Z,33.90
2022-08-23T13:25:32.856Z,27.80
2022-08-23T13:28:24.683Z,32.25
2022-08-23T13:31:08.414Z,29.83
2022-08-23T13:33:36.409Z,30.42
2022-08-23T13:36:32.053Z,30.90
2022-08-23T13:39:06.060Z,28.17
2022-08-23T13:41:38.523Z,32.65
2022-08-23T13:44:08.368Z,43.05
2022-08-23T13:46:45.686Z,33.35
2022-08-23T13:49:24.108Z,30.17
2022-08-23T13:52:18.392Z,35.10
2022-08-23T13:54:50.766Z,30.75
2022-08-23T13:57:21.799Z,31.30
2022-08-23T13:59:54.311Z,33.38
2022-08-23T14:02:22.984Z,24.25
2022-08-23T14:04:50.437Z,33.95
2022-08-23T14:07:17.863Z,36.47
2022-08-23T14:09:45.181Z,36.13
2022-08-23T14:12:17.078Z,36.17
2022-08-23T14:14:46.001Z,42.13
2022-08-23T14:17:15.734Z,42.72
2022-08-23T14:22:35.402Z,38.85
2022-08-23T14:25:02.362Z,32.55
2022-08-23T14:27:29.340Z,38.13
2022-08-23T14:29:56.300Z,38.05
2022-08-23T14:32:23.179Z,37.22
2022-08-23T14:34:50.300Z,34.13
2022-08-23T14:40:04.915Z,35.90
2022-08-23T14:42:32.225Z,38.90
2022-08-23T14:44:59.147Z,40.90
2022-08-23T14:47:26.873Z,38.05
2022-08-23T14:49:54.304Z,41.25
2022-08-23T14:52:21.718Z,33.88
2022-08-23T14:54:49.626Z,30.08
2022-08-23T14:57:17.394Z,36.25
2022-08-23T14:59:44.512Z,40.35
2022-08-23T15:02:17.208Z,32.20
2022-08-23T15:04:44.083Z,34.47
2022-08-23T15:07:19.346Z,36.05
2022-08-23T15:09:54.399Z,41.22
2022-08-23T15:15:15.889Z,33.38
2022-08-23T15:17:53.523Z,34.08
2022-08-23T15:20:31.884Z,47.88
2022-08-23T15:23:00.475Z,42.38
2022-08-23T15:25:30.727Z,34.72
2022-08-23T15:27:58.045Z,35.25
2022-08-23T15:30:25.203Z,48.83
2022-08-23T15:32:56.628Z,40.88
2022-08-23T15:35:25.869Z,30.65
2022-08-23T15:37:54.547Z,35.58
2022-08-23T15:40:22.636Z,37.97
2022-08-23T15:42:49.762Z,46.03
2022-08-23T15:45:16.835Z,38.53
2022-08-23T15:47:51.596Z,36.95
2022-08-23T15:50:21.764Z,44.47
2022-08-23T15:52:48.919Z,28.75
2022-08-23T15:55:16.547Z,30.52
2022-08-23T15:57:49.747Z,28.08
2022-08-23T16:00:19.213Z,26.35
2022-08-23T16:03:17.221Z,17.52
2022-08-23T16:05:33.130Z,18.63
2022-08-23T16:08:00.403Z,12.77
2022-08-23T16:10:28.148Z,15.27
2022-08-23T16:12:55.544Z,19.70
2022-08-23T16:15:22.455Z,16.65
2022-08-23T16:17:49.444Z,15.65
2022-08-23T16:20:19.920Z,17.33
2022-08-23T16:22:46.802Z,16.60
2022-08-23T16:25:13.743Z,18.10
2022-08-23T16:27:40.650Z,16.58
2022-08-23T16:30:08.248Z,16.80
2022-08-23T16:32:39.395Z,23.55
2022-08-23T16:35:06.631Z,18.55
2022-08-23T16:37:33.784Z,22.98
2022-08-23T16:40:00.759Z,19.13
2022-08-23T16:42:27.617Z,15.52
2022-08-23T16:44:54.517Z,16.50
2022-08-23T16:47:21.394Z,15.60
2022-08-23T16:49:48.268Z,14.25
2022-08-23T16:52:15.323Z,15.93
2022-08-23T16:54:42.606Z,14.02
2022-08-23T16:57:09.506Z,21.25
2022-08-23T16:59:40.392Z,17.75
2022-08-23T17:02:11.136Z,15.57
2022-08-23T17:04:38.525Z,16.70
2022-08-23T17:07:06.395Z,20.70
2022-08-23T17:09:33.235Z,17.55
2022-08-23T17:12:00.179Z,14.05
2022-08-23T17:14:27.262Z,20.70
2022-08-23T17:16:55.292Z,15.75
2022-08-23T17:19:22.538Z,17.30
2022-08-23T17:21:49.471Z,13.32
2022-08-23T17:24:16.274Z,16.27
2022-08-23T17:26:43.239Z,15.13
2022-08-23T17:29:10.212Z,16.65
2022-08-23T17:31:37.875Z,14.02
2022-08-23T17:34:06.815Z,17.90
2022-08-23T17:36:41.701Z,13.38
2022-08-23T17:39:14.967Z,18.85
2022-08-23T17:41:45.187Z,16.05
2022-08-23T17:44:13.332Z,10.75
2022-08-23T17:46:43.158Z,14.40
2022-08-23T17:49:11.018Z,17.92
2022-08-23T17:51:41.035Z,21.13
2022-08-23T17:54:09.119Z,12.95
2022-08-23T17:56:37.158Z,12.00
2022-08-23T17:59:08.671Z,15.05
2022-08-23T18:01:36.007Z,15.87
2022-08-23T18:04:03.808Z,17.23
2022-08-23T18:06:31.273Z,8.45
2022-08-23T18:08:59.260Z,18.17
2022-08-23T18:11:26.110Z,12.77
2022-08-23T18:13:53.527Z,26.30
2022-08-23T18:16:22.198Z,11.93
2022-08-23T18:18:49.063Z,15.20
2022-08-23T18:21:15.866Z,11.57
2022-08-23T18:23:42.828Z,11.23
2022-08-23T18:26:31.871Z,12.00
2022-08-23T18:29:01.228Z,15.27
2022-08-23T18:31:28.256Z,16.10
2022-08-23T18:34:00.236Z,12.33
2022-08-23T18:36:29.244Z,12.87
2022-08-23T18:38:56.309Z,16.77
2022-08-23T18:41:23.854Z,17.37
2022-08-23T18:43:51.174Z,12.30
2022-08-23T18:46:18.810Z,13.20
2022-08-23T18:48:50.578Z,14.33
2022-08-23T18:51:22.363Z,17.20
2022-08-23T18:53:49.401Z,14.43
2022-08-23T18:56:16.279Z,13.23
2022-08-23T18:58:43.157Z,13.83
2022-08-23T19:01:30.423Z,15.27
2022-08-23T19:03:59.487Z,13.17
2022-08-23T19:06:27.920Z,13.77
2022-08-23T19:08:55.943Z,15.43
2022-08-23T19:11:24.402Z,11.90
2022-08-23T19:13:51.610Z,11.83
2022-08-23T19:16:21.538Z,13.00
2022-08-23T19:19:12.340Z,13.37
2022-08-23T19:21:54.916Z,15.17
2022-08-23T19:24:32.408Z,18.07
2022-08-23T19:27:05.727Z,12.97
2022-08-23T19:29:42.064Z,17.67
2022-08-23T19:32:33.054Z,15.77
2022-08-23T19:35:03.522Z,14.13
2022-08-23T19:37:31.074Z,13.70
2022-08-23T19:40:01.241Z,11.83
2022-08-23T19:42:29.214Z,11.53
2022-08-23T19:44:56.388Z,15.20
2022-08-23T19:47:28.115Z,12.23
2022-08-23T19:56:00.850Z,14.00
2022-08-23T19:58:54.259Z,12.07
2022-08-23T20:01:21.566Z,15.23
2022-08-23T20:03:48.585Z,16.20
2022-08-23T20:06:18.768Z,11.97
2022-08-23T20:08:45.908Z,13.23
2022-08-23T20:11:13.596Z,12.87
2022-08-23T20:13:40.751Z,11.70
2022-08-23T20:16:07.755Z,14.53
2022-08-23T20:18:34.829Z,14.17
2022-08-23T20:21:01.734Z,12.00
2022-08-23T20:23:47.181Z,13.10
2022-08-23T20:26:14.054Z,11.70
2022-08-23T20:28:55.248Z,12.67
2022-08-23T20:31:33.250Z,14.10
2022-08-23T20:34:00.575Z,11.33
2022-08-23T20:36:28.407Z,13.33
2022-08-23T20:38:58.351Z,12.57
2022-08-23T20:41:30.434Z,12.57
2022-08-23T20:43:57.997Z,12.10
2022-08-23T20:46:25.467Z,10.83
2022-08-23T20:48:52.982Z,11.10
2022-08-23T20:51:20.773Z,12.30
2022-08-23T20:53:47.978Z,10.97
2022-08-23T20:56:15.059Z,10.57
2022-08-23T20:58:42.590Z,13.93
2022-08-23T21:01:12.108Z,9.73
2022-08-23T21:03:39.283Z,14.33
2022-08-23T21:06:16.815Z,12.07
2022-08-23T21:08:49.058Z,15.87
2022-08-23T21:11:16.605Z,14.90
2022-08-23T21:13:44.389Z,12.73
2022-08-23T21:16:12.349Z,16.60
2022-08-23T21:18:39.778Z,10.00
2022-08-23T21:21:07.170Z,13.30
2022-08-23T21:23:34.797Z,13.73
2022-08-23T21:26:02.497Z,15.03
2022-08-23T21:28:29.362Z,11.63
2022-08-23T21:31:23.272Z,14.40
2022-08-23T21:33:51.161Z,15.00
2022-08-23T21:36:19.634Z,12.93
2022-08-23T21:38:46.671Z,17.17
2022-08-23T21:41:33.785Z,14.07
2022-08-23T21:44:01.103Z,17.10
2022-08-23T21:46:28.183Z,11.23
2022-08-23T21:48:55.297Z,13.27
2022-08-23T21:51:22.757Z,17.13
2022-08-23T21:53:49.778Z,12.23
2022-08-23T21:56:16.907Z,13.70
2022-08-23T21:58:44.291Z,10.87
2022-08-23T22:01:11.848Z,15.33
2022-08-23T22:03:38.758Z,10.77
2022-08-23T22:06:12.981Z,13.20
2022-08-23T22:08:40.630Z,14.57
2022-08-23T22:11:08.072Z,13.23
2022-08-23T22:13:36.001Z,11.37
2022-08-23T22:16:03.134Z,14.77
2022-08-23T22:18:31.098Z,13.40
2022-08-23T22:20:59.333Z,13.53
2022-08-23T22:23:31.385Z,19.23
2022-08-23T22:26:00.379Z,16.97
2022-08-23T22:28:32.363Z,15.77
2022-08-23T22:31:05.725Z,17.90
2022-08-23T22:33:33.345Z,13.53
2022-08-23T22:36:10.005Z,9.97
2022-08-23T22:38:38.315Z,17.73
2022-08-23T22:41:05.779Z,12.07
2022-08-23T22:43:32.945Z,14.30
2022-08-23T22:46:01.374Z,12.00
2022-08-23T22:48:31.400Z,15.77
2022-08-23T22:51:09.349Z,17.47
2022-08-23T22:53:38.791Z,11.70
2022-08-23T22:56:07.703Z,10.17
2022-08-23T22:58:34.881Z,11.03
2022-08-23T23:01:03.728Z,12.80
2022-08-23T23:03:39.869Z,13.67
2022-08-23T23:06:08.196Z,13.07
2022-08-23T23:08:35.097Z,11.20
2022-08-23T23:11:05.850Z,11.37
2022-08-23T23:13:33.363Z,11.03
2022-08-23T23:16:04.472Z,12.23
2022-08-23T23:18:31.272Z,13.27
2022-08-23T23:21:00.552Z,16.00
2022-08-23T23:23:28.711Z,21.93
2022-08-23T23:25:56.030Z,14.87
2022-08-23T23:28:23.347Z,10.77
2022-08-23T23:30:53.202Z,15.07
2022-08-23T23:33:21.678Z,10.57
2022-08-23T23:35:48.787Z,15.67
2022-08-23T23:38:15.689Z,11.33
2022-08-23T23:40:43.782Z,13.57
2022-08-23T23:43:13.123Z,17.60
2022-08-23T23:45:42.342Z,17.97
2022-08-23T23:48:09.702Z,10.07
2022-08-23T23:50:42.402Z,12.87
2022-08-23T23:53:13.940Z,12.70
2022-08-23T23:55:41.066Z,13.30
2022-08-23T23:58:07.887Z,18.70
